Time;durP1;ratioP1;P1;durP2;ratioP2;P2;SDS_P1;SDS_P2;PMS_P1;PMS_P2;Temp;Humidity;BMP_temperature;BMP_pressure;BME280_temperature;BME280_humidity;BME280_pressure;Samples;Min_cycle;Max_cycle;Signal;HPM_P1;HPM_P2
2023/09/27 00:00:31;;;;;;;6.57;4.88;;;;;;;15.62;90.43;101752.53;3613099;39;20082;-68
2023/09/27 00:02:59;;;;;;;7.95;4.82;;;;;;;15.60;89.77;101743.63;3611014;39;20111;-67
2023/09/27 00:05:25;;;;;;;6.35;5.32;;;;;;;15.56;90.90;101754.66;3612379;39;20058;-67
2023/09/27 00:07:51;;;;;;;8.98;5.05;;;;;;;15.55;90.36;101757.50;3611734;39;20069;-67
2023/09/27 00:10:18;;;;;;;5.20;4.63;;;;;;;15.52;89.60;101753.16;3613512;39;20050;-67
2023/09/27 00:12:45;;;;;;;6.45;5.28;;;;;;;15.52;90.34;101760.41;3612702;39;20063;-66
2023/09/27 00:15:12;;;;;;;8.50;5.60;;;;;;;15.34;89.94;101735.41;3613818;39;20090;-66
2023/09/27 00:17:40;;;;;;;5.43;4.68;;;;;;;15.50;90.89;101756.91;3604853;39;20045;-67
2023/09/27 00:20:13;;;;;;;8.02;5.22;;;;;;;15.50;90.80;101755.06;3616837;39;20102;-67
2023/09/27 00:22:38;;;;;;;6.70;5.47;;;;;;;15.47;90.87;101758.00;3613574;39;20050;-68
2023/09/27 00:25:07;;;;;;;8.05;5.38;;;;;;;15.44;91.75;101749.22;3613796;39;20062;-67
2023/09/27 00:27:33;;;;;;;6.57;5.35;;;;;;;15.45;90.63;101756.38;3615099;39;20046;-67
2023/09/27 00:29:59;;;;;;;9.50;5.57;;;;;;;15.47;90.95;101760.69;3615775;39;20399;-67
2023/09/27 00:32:25;;;;;;;6.82;5.72;;;;;;;15.45;91.11;101756.38;3612019;39;20128;-66
2023/09/27 00:34:50;;;;;;;7.47;5.50;;;;;;;15.48;91.69;101757.03;3613802;39;20285;-66
2023/09/27 00:37:16;;;;;;;9.45;5.45;;;;;;;15.47;91.67;101755.28;3602778;39;20938;-68
2023/09/27 00:39:41;;;;;;;7.75;5.60;;;;;;;15.48;91.40;101753.47;3614171;39;20061;-67
2023/09/27 00:42:07;;;;;;;7.15;5.35;;;;;;;15.44;91.25;101744.66;3617017;39;20288;-66
2023/09/27 00:44:34;;;;;;;7.57;5.30;;;;;;;15.48;91.08;101750.75;3614642;39;20138;-66
2023/09/27 00:47:03;;;;;;;5.88;5.28;;;;;;;15.46;91.56;101753.56;3604936;39;20123;-67
2023/09/27 00:49:29;;;;;;;7.78;5.70;;;;;;;15.39;91.25;101740.53;3614265;39;20058;-67
2023/09/27 00:51:57;;;;;;;7.18;5.32;;;;;;;15.42;91.06;101752.03;3613708;39;20255;-66
2023/09/27 00:54:22;;;;;;;8.50;5.68;;;;;;;15.42;91.89;101740.34;3613670;39;20059;-67
2023/09/27 00:56:49;;;;;;;7.07;5.22;;;;;;;15.40;91.59;101737.72;3614129;39;20055;-67
2023/09/27 00:59:18;;;;;;;8.40;5.45;;;;;;;15.40;91.53;101745.84;3615213;39;20085;-66
2023/09/27 01:01:46;;;;;;;7.00;5.50;;;;;;;15.39;91.73;101746.81;3615877;39;20413;-67
2023/09/27 01:04:14;;;;;;;6.38;5.22;;;;;;;15.39;91.78;101744.13;3613703;39;20072;-67
2023/09/27 01:06:43;;;;;;;6.90;5.18;;;;;;;15.20;91.77;101705.69;3613835;39;20473;-67
2023/09/27 01:09:09;;;;;;;6.20;4.75;;;;;;;15.33;90.64;101739.97;3613147;39;20131;-67
2023/09/27 01:11:35;;;;;;;7.13;5.25;;;;;;;15.32;90.82;101740.09;3612754;39;20047;-66
2023/09/27 01:14:00;;;;;;;5.35;4.72;;;;;;;14.93;91.00;101679.47;3613109;39;20066;-67
2023/09/27 01:16:26;;;;;;;7.80;5.20;;;;;;;15.26;90.86;101745.91;3612965;39;20058;-65
2023/09/27 01:18:52;;;;;;;6.60;5.50;;;;;;;15.22;91.17;101734.41;3612110;39;20066;-67
2023/09/27 01:21:19;;;;;;;6.00;5.22;;;;;;;15.18;91.23;101735.56;3613643;39;20479;-67
2023/09/27 01:23:50;;;;;;;6.85;5.45;;;;;;;15.16;92.24;101723.09;3613088;39;20082;-67
2023/09/27 01:26:18;;;;;;;11.48;6.50;;;;;;;15.14;92.21;101719.66;3613762;39;20102;-67
2023/09/27 01:28:47;;;;;;;9.02;6.30;;;;;;;15.13;93.19;101707.06;3613744;39;20130;-67
2023/09/27 01:31:13;;;;;;;9.65;6.20;;;;;;;15.13;94.00;101702.53;3611854;39;20381;-68
2023/09/27 01:33:40;;;;;;;10.18;6.18;;;;;;;15.13;94.05;101704.34;3602961;39;20066;-68
2023/09/27 01:36:07;;;;;;;6.82;5.80;;;;;;;15.12;94.42;101700.78;3615832;39;20047;-66
2023/09/27 01:38:33;;;;;;;8.25;6.25;;;;;;;15.14;94.13;101706.09;3604533;39;20054;-67
2023/09/27 01:40:59;;;;;;;8.40;6.32;;;;;;;15.09;93.24;101690.16;3616623;39;20126;-68
2023/09/27 01:43:25;;;;;;;8.48;6.20;;;;;;;15.09;93.64;101693.72;3603929;39;20358;-67
2023/09/27 01:45:50;;;;;;;7.35;6.13;;;;;;;15.03;92.92;101702.28;3613917;39;20120;-67
2023/09/27 01:48:16;;;;;;;7.30;6.00;;;;;;;15.01;92.80;101700.63;3611775;39;20071;-66
2023/09/27 01:50:42;;;;;;;12.02;6.20;;;;;;;15.03;92.51;101712.22;3612404;39;20058;-67
2023/09/27 01:53:07;;;;;;;6.57;5.90;;;;;;;15.01;91.92;101716.88;3614104;39;20059;-67
2023/09/27 01:55:33;;;;;;;7.00;6.03;;;;;;;14.98;91.87;101717.09;3603804;39;20062;-68
2023/09/27 01:58:01;;;;;;;6.80;5.55;;;;;;;14.96;91.71;101710.91;3613535;39;20054;-66
2023/09/27 02:00:27;;;;;;;8.05;6.03;;;;;;;14.94;91.88;101711.00;3613961;39;20055;-68
2023/09/27 02:02:59;;;;;;;7.78;6.15;;;;;;;14.92;92.70;101710.22;3615591;39;20074;-67
2023/09/27 02:05:28;;;;;;;7.40;6.60;;;;;;;14.88;93.49;101706.00;3603552;39;20114;-68
2023/09/27 02:07:54;;;;;;;9.00;5.70;;;;;;;14.85;93.13;101714.31;3613582;39;20047;-66
2023/09/27 02:10:21;;;;;;;11.38;5.93;;;;;;;14.85;93.60;101711.63;3614239;39;20403;-66
2023/09/27 02:12:47;;;;;;;7.47;6.13;;;;;;;14.83;92.97;101710.84;3613129;39;20286;-67
2023/09/27 02:15:16;;;;;;;7.50;6.68;;;;;;;14.83;92.47;101708.13;3614260;39;20058;-66
2023/09/27 02:17:43;;;;;;;7.32;6.57;;;;;;;14.81;93.18;101696.53;3603804;39;20066;-68
2023/09/27 02:20:13;;;;;;;7.45;6.07;;;;;;;14.79;92.52;101704.75;3613385;39;20328;-68
2023/09/27 02:22:41;;;;;;;6.68;6.07;;;;;;;14.67;92.17;101693.88;3613185;39;20062;-68
2023/09/27 02:25:11;;;;;;;10.65;6.22;;;;;;;14.75;92.25;101707.78;3612278;39;20070;-67
2023/09/27 02:27:39;;;;;;;6.82;5.88;;;;;;;14.76;92.18;101710.38;3612572;39;20051;-68
2023/09/27 02:30:07;;;;;;;8.40;5.95;;;;;;;14.66;91.75;101702.97;3612422;39;20091;-68
2023/09/27 02:32:34;;;;;;;7.53;6.47;;;;;;;14.65;92.16;101706.63;3611882;39;20057;-67
2023/09/27 02:35:00;;;;;;;8.02;6.22;;;;;;;14.70;92.19;101720.72;3613867;39;20072;-67
2023/09/27 02:37:26;;;;;;;7.75;6.45;;;;;;;14.68;91.91;101701.00;3612815;39;20042;-66
2023/09/27 02:39:52;;;;;;;7.85;6.43;;;;;;;14.67;91.99;101715.50;3615505;39;20289;-67
2023/09/27 02:42:17;;;;;;;7.65;6.28;;;;;;;14.65;91.73;101718.31;3613838;39;20066;-67
2023/09/27 02:44:43;;;;;;;11.23;6.40;;;;;;;14.29;91.98;101656.59;3612684;39;20353;-68
2023/09/27 02:47:09;;;;;;;6.80;5.88;;;;;;;14.57;91.74;101702.56;3612127;39;20067;-67
2023/09/27 02:49:35;;;;;;;9.32;6.38;;;;;;;14.59;91.97;101708.78;3613915;39;20111;-68
2023/09/27 02:52:01;;;;;;;7.93;6.50;;;;;;;14.58;91.42;101711.56;3614225;39;20058;-68
2023/09/27 02:54:28;;;;;;;7.38;6.38;;;;;;;14.56;91.52;101708.09;3612207;39;20083;-66
2023/09/27 02:56:54;;;;;;;10.50;7.85;;;;;;;14.48;91.90;101702.25;3611367;39;20062;-67
2023/09/27 02:59:20;;;;;;;9.45;6.65;;;;;;;14.53;90.90;101714.56;3613782;39;20058;-67
2023/09/27 03:01:46;;;;;;;11.38;9.25;;;;;;;14.54;91.68;101716.31;3615577;39;20092;-68
2023/09/27 03:04:15;;;;;;;11.93;10.65;;;;;;;14.53;91.96;101706.47;3613099;39;20070;-69
2023/09/27 03:06:41;;;;;;;12.73;10.77;;;;;;;14.52;91.13;101711.94;3606813;39;20053;-67
2023/09/27 03:09:09;;;;;;;12.75;9.90;;;;;;;14.49;92.18;101698.59;3616089;39;20059;-67
2023/09/27 03:11:36;;;;;;;8.55;7.22;;;;;;;14.43;91.88;101697.16;3613402;39;20047;-68
2023/09/27 03:14:02;;;;;;;8.88;7.40;;;;;;;14.43;92.45;101685.44;3613700;39;20055;-68
2023/09/27 03:16:29;;;;;;;7.80;7.00;;;;;;;14.48;91.30;101713.94;3612313;39;20086;-67
2023/09/27 03:18:54;;;;;;;7.75;6.95;;;;;;;13.85;91.93;101608.91;3613855;39;20385;-68
2023/09/27 03:21:21;;;;;;;9.95;7.05;;;;;;;14.11;91.63;101651.41;3611191;39;20062;-67
2023/09/27 03:23:46;;;;;;;8.68;7.68;;;;;;;14.47;92.52;101706.81;3611221;39;20546;-68
2023/09/27 03:26:12;;;;;;;8.18;7.38;;;;;;;14.42;93.81;101700.81;3613933;39;20055;-67
2023/09/27 03:28:38;;;;;;;9.02;7.90;;;;;;;14.44;94.37;101712.41;3601826;39;21332;-67
2023/09/27 03:31:05;;;;;;;8.35;7.47;;;;;;;14.45;94.20;101716.84;3613329;39;20098;-67
2023/09/27 03:33:31;;;;;;;8.73;7.60;;;;;;;14.45;94.71;101726.81;3613148;39;20081;-68
2023/09/27 03:35:57;;;;;;;8.93;6.55;;;;;;;14.28;93.95;101704.41;3613261;39;20055;-67
2023/09/27 03:38:23;;;;;;;9.90;7.43;;;;;;;14.35;92.99;101721.13;3616145;39;20057;-67
2023/09/27 03:40:49;;;;;;;9.98;7.65;;;;;;;14.23;93.16;101700.25;3614005;39;20070;-67
2023/09/27 03:43:15;;;;;;;8.38;7.32;;;;;;;14.36;92.62;101739.94;3613365;39;20089;-67
2023/09/27 03:45:41;;;;;;;8.18;7.30;;;;;;;14.35;93.11;101737.34;3613592;39;20058;-67
2023/09/27 03:48:06;;;;;;;8.52;7.05;;;;;;;14.33;92.26;101733.84;3617400;39;20478;-67
2023/09/27 03:50:32;;;;;;;7.72;6.55;;;;;;;14.30;93.11;101717.81;3614075;39;20058;-67
2023/09/27 03:52:59;;;;;;;10.40;7.45;;;;;;;14.26;92.96;101710.88;3614080;39;20432;-68
2023/09/27 03:55:25;;;;;;;9.82;7.25;;;;;;;14.22;93.59;101704.78;3616531;39;20051;-66
2023/09/27 03:57:52;;;;;;;10.18;7.60;;;;;;;14.21;94.10;101702.19;3614938;39;20079;-67
2023/09/27 04:00:18;;;;;;;9.75;7.32;;;;;;;14.19;94.58;101698.72;3615770;39;20083;-66
2023/09/27 04:02:44;;;;;;;9.30;7.13;;;;;;;14.17;94.27;101713.19;3615246;39;20066;-68
2023/09/27 04:05:12;;;;;;;10.98;7.35;;;;;;;13.86;94.11;101664.69;3612441;39;20058;-67
2023/09/27 04:07:39;;;;;;;9.45;6.80;;;;;;;14.19;93.80;101725.75;3612701;39;20520;-67
2023/09/27 04:10:07;;;;;;;11.18;7.57;;;;;;;14.20;93.50;101735.59;3615175;39;20106;-67
2023/09/27 04:12:34;;;;;;;8.25;6.97;;;;;;;14.14;93.25;101740.44;3614421;39;20320;-68
2023/09/27 04:15:00;;;;;;;9.77;7.68;;;;;;;14.14;93.00;101748.56;3615621;39;20058;-68
2023/09/27 04:17:27;;;;;;;9.85;7.15;;;;;;;14.14;92.70;101734.16;3617072;39;20059;-68
2023/09/27 04:19:55;;;;;;;9.05;7.18;;;;;;;14.12;92.93;101731.56;3613811;39;20042;-68
2023/09/27 04:22:21;;;;;;;8.32;7.13;;;;;;;14.09;93.81;101729.03;3611037;39;20073;-67
2023/09/27 04:24:47;;;;;;;9.38;7.20;;;;;;;14.03;93.63;101742.94;3614418;39;20558;-67
2023/09/27 04:27:12;;;;;;;8.90;7.40;;;;;;;14.02;94.04;101752.00;3615651;39;20491;-68
2023/09/27 04:29:38;;;;;;;8.32;7.32;;;;;;;14.07;94.09;101765.25;3615990;39;20062;-68
2023/09/27 04:32:04;;;;;;;9.82;7.07;;;;;;;14.05;93.58;101762.66;3615123;39;20055;-67
2023/09/27 04:34:30;;;;;;;10.50;7.35;;;;;;;14.05;92.83;101759.94;3613023;39;20050;-67
2023/09/27 04:36:56;;;;;;;9.18;7.47;;;;;;;13.69;92.95;101699.03;3615241;39;20098;-68
2023/09/27 04:39:27;;;;;;;8.05;6.22;;;;;;;14.00;92.40;101764.75;3615764;39;20165;-67
2023/09/27 04:41:53;;;;;;;8.00;7.20;;;;;;;13.99;92.11;101771.13;3613295;39;20262;-68
2023/09/27 04:44:19;;;;;;;8.80;7.18;;;;;;;14.00;92.59;101767.44;3612979;39;20068;-67
2023/09/27 04:46:44;;;;;;;11.07;7.22;;;;;;;14.00;92.26;101753.06;3614215;39;20055;-68
2023/09/27 04:49:10;;;;;;;8.50;7.00;;;;;;;13.92;93.05;101723.78;3613858;39;20047;-69
2023/09/27 04:51:36;;;;;;;8.68;7.70;;;;;;;13.96;93.89;101717.25;3615324;39;20062;-67
2023/09/27 04:54:03;;;;;;;8.80;7.60;;;;;;;13.89;94.19;101723.97;3613772;39;20071;-67
2023/09/27 04:56:30;;;;;;;8.15;7.07;;;;;;;13.89;94.49;101751.91;3601802;39;20383;-68
2023/09/27 04:59:05;;;;;;;7.55;6.85;;;;;;;13.91;94.78;101754.50;3614161;39;20058;-68
2023/09/27 05:01:31;;;;;;;8.77;7.35;;;;;;;13.92;94.32;101745.41;3616537;39;20114;-68
2023/09/27 05:03:58;;;;;;;9.55;7.40;;;;;;;13.92;94.92;101740.00;3613106;39;20373;-67
2023/09/27 05:06:23;;;;;;;8.93;7.53;;;;;;;13.89;94.23;101745.59;3614156;39;20116;-67
2023/09/27 05:08:50;;;;;;;10.07;7.35;;;;;;;13.72;94.83;101716.03;3613762;39;20062;-68
2023/09/27 05:11:18;;;;;;;8.68;7.65;;;;;;;13.92;94.12;101749.00;3616580;39;20058;-67
2023/09/27 05:13:46;;;;;;;9.82;7.80;;;;;;;13.94;93.78;101746.19;3616895;39;20123;-67
2023/09/27 05:16:12;;;;;;;11.35;7.90;;;;;;;13.92;94.09;101731.91;3616522;39;20123;-69
2023/09/27 05:18:38;;;;;;;8.95;8.05;;;;;;;13.92;95.06;101723.78;3614583;39;20156;-68
2023/09/27 05:21:06;;;;;;;10.20;8.13;;;;;;;13.90;94.81;101731.13;3616260;39;20293;-67
2023/09/27 05:23:32;;;;;;;12.98;7.78;;;;;;;13.90;95.65;101731.13;3614764;39;20042;-68
2023/09/27 05:25:58;;;;;;;10.10;8.07;;;;;;;13.87;95.26;101712.41;3618146;39;20051;-68
2023/09/27 05:28:23;;;;;;;8.63;7.68;;;;;;;13.90;95.00;101720.31;3618623;39;20061;-67
2023/09/27 05:30:49;;;;;;;9.02;7.30;;;;;;;13.89;94.88;101724.88;3619023;39;20264;-67
2023/09/27 05:33:14;;;;;;;8.43;6.82;;;;;;;13.65;94.80;101689.41;3619423;39;20061;-72
2023/09/27 05:35:40;;;;;;;9.90;7.47;;;;;;;13.89;94.59;101726.69;3619609;39;20066;-68
2023/09/27 05:38:06;;;;;;;9.32;6.90;;;;;;;13.76;94.37;101704.06;3614703;39;20320;-67
2023/09/27 05:40:31;;;;;;;10.82;6.53;;;;;;;13.89;94.16;101729.38;3615209;39;20055;-67
2023/09/27 05:42:57;;;;;;;10.25;6.70;;;;;;;13.87;93.58;101725.91;3616288;39;20043;-67
2023/09/27 05:45:22;;;;;;;10.55;7.07;;;;;;;13.89;93.59;101729.38;3620410;39;20082;-67
2023/09/27 05:47:48;;;;;;;10.23;6.70;;;;;;;13.90;93.33;101728.44;3617672;39;20059;-67
2023/09/27 05:50:14;;;;;;;9.98;6.95;;;;;;;13.88;92.93;101716.84;3613877;39;20055;-67
2023/09/27 05:52:43;;;;;;;10.95;7.30;;;;;;;13.88;93.18;101711.44;3613667;39;20444;-68
2023/09/27 05:55:09;;;;;;;10.57;7.45;;;;;;;13.88;92.46;101714.13;3612994;39;20091;-67
2023/09/27 05:57:35;;;;;;;11.52;7.18;;;;;;;13.89;92.99;101713.16;3612011;39;20128;-67
2023/09/27 06:00:12;;;;;;;10.70;7.07;;;;;;;13.88;93.04;101711.44;3612042;39;20090;-67
2023/09/27 06:02:38;;;;;;;11.45;6.55;;;;;;;13.88;92.61;101709.59;3612982;39;20066;-68
2023/09/27 06:05:04;;;;;;;13.15;7.05;;;;;;;13.90;93.09;101717.63;3617451;39;20047;-67
2023/09/27 06:07:29;;;;;;;9.07;6.85;;;;;;;13.90;92.51;101720.31;3614082;39;20042;-66
2023/09/27 06:09:55;;;;;;;9.88;6.70;;;;;;;13.92;92.79;101719.28;3614672;39;20061;-67
2023/09/27 06:12:21;;;;;;;9.27;7.22;;;;;;;13.93;92.83;101715.59;3611604;39;20073;-67
2023/09/27 06:14:46;;;;;;;12.95;7.38;;;;;;;13.95;93.26;101699.28;3612189;39;20050;-67
2023/09/27 06:17:15;;;;;;;10.07;6.53;;;;;;;14.00;94.35;101712.53;3599413;39;20057;-67
2023/09/27 06:19:41;;;;;;;11.48;7.75;;;;;;;14.06;94.73;101714.84;3611409;39;20095;-66
2023/09/27 06:22:07;;;;;;;11.15;7.30;;;;;;;14.12;94.67;101709.91;3612816;39;20136;-66
2023/09/27 06:24:33;;;;;;;9.50;7.75;;;;;;;14.12;95.46;101698.25;3612758;39;20055;-65
2023/09/27 06:26:59;;;;;;;8.32;7.30;;;;;;;14.25;95.70;101699.19;3611053;39;20525;-66
2023/09/27 06:29:25;;;;;;;11.70;8.52;;;;;;;14.31;95.97;101692.53;3613859;39;20090;-65
2023/09/27 06:31:51;;;;;;;9.82;7.80;;;;;;;14.44;96.51;101700.75;3614641;39;20050;-66
2023/09/27 06:34:18;;;;;;;10.30;8.02;;;;;;;14.53;96.22;101698.34;3615264;39;20149;-66
2023/09/27 06:36:48;;;;;;;10.20;8.00;;;;;;;14.63;95.22;101704.88;3613864;39;20061;-66
2023/09/27 06:39:16;;;;;;;10.25;8.10;;;;;;;14.71;95.13;101689.97;3606793;39;20047;-66
2023/09/27 06:41:46;;;;;;;10.88;7.43;;;;;;;14.85;95.08;101698.06;3615492;39;20469;-65
2023/09/27 06:44:15;;;;;;;9.93;7.68;;;;;;;14.97;94.80;101708.09;3615565;39;20055;-65
2023/09/27 06:46:41;;;;;;;9.15;7.95;;;;;;;15.03;94.12;101691.44;3612748;39;20062;-66
2023/09/27 06:49:07;;;;;;;9.55;7.45;;;;;;;15.22;93.76;101711.84;3612585;39;20381;-66
2023/09/27 06:51:33;;;;;;;10.57;7.50;;;;;;;15.07;93.34;101673.16;3612521;39;20053;-66
2023/09/27 06:53:59;;;;;;;8.18;6.78;;;;;;;15.45;92.78;101730.16;3611874;39;20073;-67
2023/09/27 06:56:25;;;;;;;10.18;7.40;;;;;;;15.53;92.60;101738.59;3612964;39;20425;-66
2023/09/27 06:58:51;;;;;;;12.82;7.57;;;;;;;15.63;92.19;101724.44;3615721;39;20069;-67
2023/09/27 07:01:18;;;;;;;12.80;7.75;;;;;;;15.70;91.43;101715.81;3614686;39;20055;-67
2023/09/27 07:03:45;;;;;;;10.93;7.13;;;;;;;15.77;91.51;101710.84;3605874;39;20282;-67
2023/09/27 07:06:10;;;;;;;10.63;7.40;;;;;;;15.84;91.54;101712.13;3614521;39;20059;-67
2023/09/27 07:08:36;;;;;;;12.02;7.53;;;;;;;15.88;91.58;101710.94;3612174;39;20543;-67
2023/09/27 07:11:08;;;;;;;8.82;7.22;;;;;;;15.95;91.78;101708.66;3613037;39;20477;-67
2023/09/27 07:13:34;;;;;;;10.63;7.68;;;;;;;15.96;90.38;101700.44;3611214;39;20058;-67
2023/09/27 07:16:21;;;;;;;12.30;7.53;;;;;;;15.98;90.38;101706.63;3614145;39;20051;-68
2023/09/27 07:18:48;;;;;;;9.38;7.10;;;;;;;16.02;90.63;101710.84;3614412;39;20449;-66
2023/09/27 07:21:14;;;;;;;13.70;7.97;;;;;;;16.08;90.02;101722.22;3615842;39;20050;-66
2023/09/27 07:23:40;;;;;;;9.02;7.75;;;;;;;16.10;91.10;101717.56;3613241;39;20140;-67
2023/09/27 07:26:06;;;;;;;9.90;7.63;;;;;;;15.97;90.87;101698.59;3616580;39;20296;-66
2023/09/27 07:28:31;;;;;;;12.18;7.20;;;;;;;16.16;90.88;101722.56;3615764;39;20063;-67
2023/09/27 07:30:58;;;;;;;13.20;7.90;;;;;;;16.18;90.23;101717.91;3616282;39;20401;-66
2023/09/27 07:33:25;;;;;;;13.55;7.72;;;;;;;16.18;89.88;101717.91;3616531;39;20051;-66
2023/09/27 07:35:52;;;;;;;8.90;7.75;;;;;;;16.20;89.64;101724.94;3616417;39;20390;-66
2023/09/27 07:38:18;;;;;;;13.07;7.82;;;;;;;16.24;89.82;101728.31;3616316;39;20042;-66
2023/09/27 07:40:48;;;;;;;9.00;7.78;;;;;;;16.27;90.02;101721.78;3618771;39;20099;-66
2023/09/27 07:43:15;;;;;;;14.50;7.60;;;;;;;16.24;89.49;101701.19;3615709;39;20094;-65
2023/09/27 07:45:43;;;;;;;10.15;7.72;;;;;;;16.41;88.62;101719.81;3614657;39;20065;-66
2023/09/27 07:48:09;;;;;;;10.77;7.68;;;;;;;16.50;87.24;101714.72;3614702;39;20312;-66
2023/09/27 07:50:38;;;;;;;9.02;7.32;;;;;;;16.58;87.90;101710.44;3616105;39;20067;-66
2023/09/27 07:53:08;;;;;;;9.13;7.53;;;;;;;16.69;87.91;101721.41;3618572;39;20052;-66
2023/09/27 07:55:50;;;;;;;13.00;7.80;;;;;;;16.78;87.63;101725.34;3614367;39;20063;-65
2023/09/27 07:58:17;;;;;;;12.55;7.28;;;;;;;16.91;87.47;101728.00;3617429;39;20050;-66
2023/09/27 08:00:43;;;;;;;12.15;7.25;;;;;;;17.06;85.59;101740.44;3615011;39;20142;-65
2023/09/27 08:03:14;;;;;;;11.73;7.63;;;;;;;17.23;85.06;101738.31;3622026;39;20122;-65
2023/09/27 08:05:43;;;;;;;10.50;7.63;;;;;;;17.38;84.48;101731.72;3617244;39;20066;-65
2023/09/27 08:08:13;;;;;;;11.65;7.55;;;;;;;17.55;82.15;101731.28;3616698;39;20400;-66
2023/09/27 08:10:43;;;;;;;9.85;7.10;;;;;;;17.63;81.38;101722.53;3616731;39;20420;-65
2023/09/27 08:13:11;;;;;;;10.15;8.00;;;;;;;17.89;79.74;101742.31;3614929;39;20290;-65
2023/09/27 08:15:37;;;;;;;11.32;7.75;;;;;;;17.98;80.17;101736.16;3611870;39;20063;-65
2023/09/27 08:18:03;;;;;;;9.63;7.53;;;;;;;18.12;80.44;101736.91;3615148;39;20059;-67
2023/09/27 08:20:29;;;;;;;8.07;6.88;;;;;;;18.24;79.68;101736.81;3613578;39;20131;-64
2023/09/27 08:22:55;;;;;;;8.95;7.15;;;;;;;18.38;78.28;101748.44;3615468;39;20379;-65
2023/09/27 08:25:21;;;;;;;11.57;7.25;;;;;;;18.51;77.06;101763.66;3614515;39;20061;-65
2023/09/27 08:27:50;;;;;;;11.32;7.45;;;;;;;18.63;77.25;101759.06;3613235;39;20042;-65
2023/09/27 08:30:17;;;;;;;12.20;7.28;;;;;;;18.88;76.94;101755.25;3618800;39;20077;-65
2023/09/27 08:32:43;;;;;;;9.35;7.32;;;;;;;19.19;78.98;101761.75;3602127;39;20051;-66
2023/09/27 08:35:10;;;;;;;12.65;7.50;;;;;;;19.43;74.15;101763.41;3615164;39;20123;-66
2023/09/27 08:37:37;;;;;;;10.57;6.97;;;;;;;19.61;74.34;101764.59;3612349;39;20065;-65
2023/09/27 08:40:05;;;;;;;9.15;7.22;;;;;;;19.83;72.37;101766.38;3614951;39;20057;-67
2023/09/27 08:42:33;;;;;;;13.10;7.55;;;;;;;20.04;71.95;101760.03;3612080;39;20414;-67
2023/09/27 08:45:01;;;;;;;10.32;6.75;;;;;;;20.12;70.04;101771.16;3614135;39;20058;-67
2023/09/27 08:47:29;;;;;;;8.73;7.25;;;;;;;20.21;70.85;101761.31;3613350;39;20119;-67
2023/09/27 08:49:57;;;;;;;7.85;7.05;;;;;;;20.20;70.08;101756.84;3605702;39;20078;-67
2023/09/27 08:52:29;;;;;;;11.55;6.97;;;;;;;20.22;69.72;101744.78;3615566;39;20079;-67
2023/09/27 08:54:54;;;;;;;13.70;8.50;;;;;;;20.30;70.30;101739.53;3616706;39;20047;-66
2023/09/27 08:57:26;;;;;;;10.30;7.80;;;;;;;20.67;71.09;101749.03;3612729;39;20405;-67
2023/09/27 08:59:52;;;;;;;10.43;7.03;;;;;;;20.85;69.57;101742.78;3614882;39;20397;-67
2023/09/27 09:02:18;;;;;;;8.35;6.05;;;;;;;21.19;67.85;101749.78;3614105;39;20425;-67
2023/09/27 09:04:45;;;;;;;8.98;6.03;;;;;;;21.43;66.27;101749.38;3615764;39;20059;-67
2023/09/27 09:07:11;;;;;;;9.07;5.68;;;;;;;21.59;65.90;101751.56;3615376;39;20053;-67
2023/09/27 09:09:39;;;;;;;7.88;5.40;;;;;;;21.52;65.08;101746.66;3614710;39;20174;-67
2023/09/27 09:12:08;;;;;;;8.40;6.10;;;;;;;21.32;66.05;101733.97;3612978;39;20400;-68
2023/09/27 09:14:44;;;;;;;9.38;5.80;;;;;;;21.18;67.33;101709.75;3613156;39;21835;-66
2023/09/27 09:17:11;;;;;;;9.27;6.15;;;;;;;21.25;66.97;101735.50;3616031;39;20383;-67
2023/09/27 09:19:38;;;;;;;7.20;5.90;;;;;;;21.25;66.42;101739.13;3615293;39;20149;-66
2023/09/27 09:22:11;;;;;;;6.82;5.90;;;;;;;21.28;67.17;101744.31;3614100;39;20046;-66
2023/09/27 09:24:45;;;;;;;7.57;5.60;;;;;;;21.30;66.63;101745.03;3612921;39;20484;-67
2023/09/27 09:27:14;;;;;;;6.82;5.60;;;;;;;21.33;65.90;101736.53;3614168;39;20288;-67
2023/09/27 09:30:06;;;;;;;9.90;6.68;;;;;;;21.32;66.03;101733.97;3613832;39;20055;-66
2023/09/27 09:32:33;;;;;;;9.20;6.50;;;;;;;21.33;64.29;101735.69;3613022;39;20087;-66
2023/09/27 09:35:00;;;;;;;7.40;6.57;;;;;;;21.16;64.66;101707.16;3613320;39;20055;-67
2023/09/27 09:37:29;;;;;;;8.55;6.35;;;;;;;21.14;65.56;101730.19;3615357;39;20058;-67
2023/09/27 09:40:15;;;;;;;8.63;6.22;;;;;;;21.09;65.94;101720.56;3618023;39;20067;-67
2023/09/27 09:42:48;;;;;;;8.75;6.85;;;;;;;21.01;65.96;101723.13;3615333;39;20108;-65
2023/09/27 09:45:14;;;;;;;9.05;6.60;;;;;;;21.06;66.46;101715.38;3617466;39;20333;-65
2023/09/27 09:47:44;;;;;;;6.65;5.95;;;;;;;21.18;67.11;101709.75;3617332;39;20246;-65
2023/09/27 09:50:18;;;;;;;9.63;6.43;;;;;;;21.23;66.13;101708.31;3617149;39;20054;-65
2023/09/27 09:52:57;;;;;;;8.00;6.28;;;;;;;21.47;66.21;101707.06;3605840;39;20066;-65
2023/09/27 09:55:26;;;;;;;7.85;6.20;;;;;;;21.77;65.36;101695.09;3613279;39;20059;-64
2023/09/27 09:58:37;;;;;;;8.75;6.32;;;;;;;22.05;63.30;101703.38;3614668;39;20317;-64
2023/09/27 10:01:04;;;;;;;9.15;7.57;;;;;;;22.21;61.71;101695.44;3602234;39;20046;-65
2023/09/27 10:03:36;;;;;;;9.30;7.10;;;;;;;22.18;62.16;101671.09;3616682;39;20043;-68
2023/09/27 10:06:04;;;;;;;9.93;7.22;;;;;;;22.66;61.93;101686.44;3619863;39;20058;-64
2023/09/27 10:08:34;;;;;;;7.25;5.93;;;;;;;22.97;59.63;101683.41;3604435;39;20047;-64
2023/09/27 10:11:05;;;;;;;6.47;5.43;;;;;;;22.98;58.29;101683.22;3616433;39;20293;-64
2023/09/27 10:13:38;;;;;;;7.18;6.45;;;;;;;22.87;58.07;101686.16;3618028;39;20107;-65
2023/09/27 10:16:05;;;;;;;9.52;6.70;;;;;;;22.84;58.55;101690.06;3616983;39;20389;-65
2023/09/27 10:18:35;;;;;;;6.82;6.10;;;;;;;22.84;58.82;101681.84;3614791;39;20278;-65
2023/09/27 10:21:00;;;;;;;9.35;5.75;;;;;;;23.13;57.75;101700.03;3615270;39;20055;-64
2023/09/27 10:23:26;;;;;;;9.88;6.32;;;;;;;23.28;57.71;101698.47;3617354;39;20046;-65
2023/09/27 10:25:52;;;;;;;8.55;6.32;;;;;;;23.35;57.55;101691.31;3614960;39;20401;-66
2023/09/27 10:28:18;;;;;;;7.95;6.32;;;;;;;23.50;56.77;101686.16;3617719;39;20093;-64
2023/09/27 10:30:48;;;;;;;8.35;5.82;;;;;;;23.51;56.56;101670.53;3614101;39;20669;-64
2023/09/27 10:33:16;;;;;;;9.98;5.88;;;;;;;23.53;55.29;101657.50;3618438;39;20098;-64
2023/09/27 10:36:06;;;;;;;8.48;5.63;;;;;;;23.60;55.57;101653.13;3613423;39;20662;-65
2023/09/27 10:38:41;;;;;;;7.25;5.75;;;;;;;23.61;54.78;101665.81;3612636;39;20409;-64
2023/09/27 10:41:08;;;;;;;8.20;5.88;;;;;;;23.62;55.64;101662.03;3611416;39;20050;-64
2023/09/27 10:43:38;;;;;;;7.35;5.70;;;;;;;23.74;55.50;101658.03;3611268;39;20066;-64
2023/09/27 10:46:04;;;;;;;9.60;6.50;;;;;;;23.90;57.38;101646.31;3615057;39;20058;-66
2023/09/27 10:48:37;;;;;;;10.05;5.88;;;;;;;24.11;54.54;101651.41;3613819;39;20047;-65
2023/09/27 10:51:03;;;;;;;10.82;5.70;;;;;;;24.16;54.85;101645.41;3614665;39;20129;-65
2023/09/27 10:53:32;;;;;;;5.15;4.55;;;;;;;24.21;54.11;101632.91;3611567;39;20062;-65
2023/09/27 10:55:58;;;;;;;6.90;5.05;;;;;;;24.24;53.66;101629.84;3612803;39;20058;-64
2023/09/27 10:58:24;;;;;;;7.60;5.97;;;;;;;24.21;54.25;101624.69;3613801;39;20385;-64
2023/09/27 11:00:55;;;;;;;7.93;6.20;;;;;;;24.30;56.07;101618.19;3615659;39;21123;-64
2023/09/27 11:03:23;;;;;;;7.00;5.60;;;;;;;24.47;53.91;101618.28;3617515;39;20058;-66
2023/09/27 11:05:49;;;;;;;7.05;4.82;;;;;;;24.56;54.98;101622.78;3613273;39;20053;-66
2023/09/27 11:08:22;;;;;;;6.18;4.38;;;;;;;24.49;52.31;101621.75;3615225;39;20366;-66
2023/09/27 11:10:51;;;;;;;8.65;4.80;;;;;;;24.30;52.69;101596.22;3615790;39;20055;-66
2023/09/27 11:13:17;;;;;;;6.20;4.38;;;;;;;24.37;52.47;101607.41;3605416;39;20059;-67
2023/09/27 11:15:44;;;;;;;7.70;4.75;;;;;;;24.04;52.95;101568.81;3615032;39;20054;-66
2023/09/27 11:18:10;;;;;;;5.40;4.40;;;;;;;24.14;52.86;101590.66;3615372;39;20043;-67
2023/09/27 11:20:38;;;;;;;7.50;4.75;;;;;;;24.18;53.07;101600.28;3611797;39;20151;-67
2023/09/27 11:23:05;;;;;;;5.28;4.20;;;;;;;24.13;53.74;101579.81;3616175;39;20062;-66